Time;durP1;ratioP1;P1;durP2;ratioP2;P2;SDS_P1;SDS_P2;PMS_P1;PMS_P2;Temp;Humidity;BMP_temperature;BMP_pressure;BME280_temperature;BME280_humidity;BME280_pressure;Samples;Min_cycle;Max_cycle;Signal;HPM_P1;HPM_P2
2021/05/28 00:00:11;;;;;;;12.93;7.90;;;8.10;93.30;;;;;;5092367;28;20422;-53
2021/05/28 00:02:36;;;;;;;14.35;7.72;;;8.10;93.30;;;;;;5087949;28;20045;-54
2021/05/28 00:05:03;;;;;;;14.73;6.88;;;8.00;93.30;;;;;;5089755;28;20093;-54
2021/05/28 00:07:29;;;;;;;12.75;7.30;;;8.00;93.20;;;;;;5093380;28;20461;-53
2021/05/28 00:09:55;;;;;;;12.95;6.90;;;8.00;93.30;;;;;;5087878;28;20093;-53
2021/05/28 00:12:20;;;;;;;15.70;7.50;;;8.00;93.30;;;;;;5084944;28;20074;-53
2021/05/28 00:14:46;;;;;;;13.52;7.63;;;8.00;93.30;;;;;;5087937;28;20511;-56
2021/05/28 00:17:12;;;;;;;12.50;7.50;;;8.00;93.30;;;;;;5079115;28;20040;-51
2021/05/28 00:19:47;;;;;;;15.75;8.73;;;7.90;93.30;;;;;;5075259;28;20047;-53
2021/05/28 00:22:13;;;;;;;13.75;8.38;;;7.90;93.30;;;;;;5092752;28;20044;-53
2021/05/28 00:24:38;;;;;;;13.93;9.10;;;7.90;93.30;;;;;;5091240;28;20041;-53
2021/05/28 00:27:04;;;;;;;18.40;8.98;;;7.90;93.30;;;;;;5092795;28;20122;-56
2021/05/28 00:29:30;;;;;;;17.42;9.73;;;8.00;93.40;;;;;;5091583;28;20506;-53
2021/05/28 00:31:56;;;;;;;13.93;8.52;;;8.10;93.50;;;;;;5092794;28;20463;-53
2021/05/28 00:34:21;;;;;;;16.90;7.90;;;7.90;93.50;;;;;;5091007;28;20412;-56
2021/05/28 00:36:47;;;;;;;14.13;8.70;;;8.00;93.40;;;;;;5083740;28;20403;-52
2021/05/28 00:39:12;;;;;;;15.07;9.15;;;7.90;93.50;;;;;;5086750;28;20048;-55
2021/05/28 00:41:38;;;;;;;18.77;9.52;;;8.00;93.60;;;;;;5092368;28;20048;-53
2021/05/28 00:44:05;;;;;;;21.15;9.77;;;8.00;93.90;;;;;;5091360;28;20054;-59
2021/05/28 00:46:30;;;;;;;20.63;9.93;;;8.10;93.80;;;;;;5083341;28;20072;-56
2021/05/28 00:48:56;;;;;;;21.92;9.88;;;8.10;93.90;;;;;;5084597;28;20105;-52
2021/05/28 00:51:24;;;;;;;19.15;10.32;;;8.20;93.90;;;;;;5092118;28;20419;-53
2021/05/28 00:53:51;;;;;;;18.52;10.50;;;8.20;93.80;;;;;;5089846;28;20365;-52
2021/05/28 00:56:18;;;;;;;18.95;10.65;;;8.20;93.80;;;;;;5090879;28;20037;-53
2021/05/28 00:58:44;;;;;;;19.25;11.07;;;8.30;93.80;;;;;;5087197;28;20554;-55
2021/05/28 01:01:09;;;;;;;21.38;11.70;;;8.30;93.80;;;;;;5076106;28;20079;-55
2021/05/28 01:03:35;;;;;;;19.30;10.98;;;8.40;93.90;;;;;;5086096;28;20071;-55
2021/05/28 01:06:01;;;;;;;19.20;10.77;;;8.40;93.80;;;;;;5091316;28;20416;-53
2021/05/28 01:08:27;;;;;;;23.52;12.07;;;8.40;93.80;;;;;;5089187;28;20038;-56
2021/05/28 01:10:53;;;;;;;18.98;10.73;;;8.50;93.80;;;;;;5090569;28;20051;-51
2021/05/28 01:13:19;;;;;;;21.58;11.25;;;8.50;93.80;;;;;;5083021;28;20063;-55
2021/05/28 01:15:45;;;;;;;18.00;10.40;;;8.50;93.80;;;;;;5071997;28;20036;-52
2021/05/28 01:18:10;;;;;;;21.40;10.90;;;8.50;93.80;;;;;;5081947;28;20083;-51
2021/05/28 01:20:38;;;;;;;17.63;10.80;;;8.50;93.80;;;;;;5087541;28;20419;-53
2021/05/28 01:23:05;;;;;;;21.73;11.20;;;8.50;93.80;;;;;;5085424;28;20167;-55
2021/05/28 01:25:31;;;;;;;21.65;11.00;;;8.50;93.80;;;;;;5080803;28;20047;-51
2021/05/28 01:27:58;;;;;;;20.33;11.25;;;8.50;93.90;;;;;;5087058;28;20101;-53
2021/05/28 01:30:25;;;;;;;22.95;11.60;;;8.60;93.80;;;;;;5089382;28;20408;-53
2021/05/28 01:32:50;;;;;;;22.27;11.15;;;8.50;93.80;;;;;;5082826;28;20075;-51
2021/05/28 01:35:16;;;;;;;21.00;11.40;;;8.60;93.80;;;;;;5088490;28;20136;-52
2021/05/28 01:37:43;;;;;;;25.05;11.25;;;8.60;93.70;;;;;;5089202;28;20508;-52
2021/05/28 01:40:11;;;;;;;22.90;11.13;;;8.60;93.80;;;;;;5084890;28;20415;-55
2021/05/28 01:42:37;;;;;;;22.15;11.13;;;8.60;93.80;;;;;;5089336;28;20121;-51
2021/05/28 01:45:05;;;;;;;20.70;11.57;;;8.60;93.80;;;;;;5084605;28;20127;-52
2021/05/28 01:47:31;;;;;;;19.67;11.15;;;8.60;93.90;;;;;;5089447;28;20498;-53
2021/05/28 01:49:57;;;;;;;22.25;10.63;;;8.60;93.80;;;;;;5081667;28;20068;-52
2021/05/28 01:52:24;;;;;;;16.58;9.82;;;8.60;93.90;;;;;;5088285;28;20508;-53
2021/05/28 01:54:50;;;;;;;17.42;9.55;;;8.60;93.90;;;;;;5087648;22;20115;-56
2021/05/28 01:57:17;;;;;;;21.27;10.48;;;8.60;93.80;;;;;;5068619;28;20035;-54
2021/05/28 01:59:44;;;;;;;19.20;9.93;;;8.60;93.90;;;;;;5061003;28;20048;-54
2021/05/28 02:02:10;;;;;;;19.00;10.13;;;8.60;93.90;;;;;;5070304;28;20432;-54
2021/05/28 02:04:38;;;;;;;17.80;9.63;;;8.60;93.80;;;;;;5051121;28;20041;-52
2021/05/28 02:07:05;;;;;;;21.60;9.75;;;8.60;93.80;;;;;;5045029;28;20508;-51
2021/05/28 02:09:32;;;;;;;19.27;9.30;;;8.60;93.80;;;;;;5051248;28;20063;-53
2021/05/28 02:11:58;;;;;;;16.75;8.80;;;8.60;93.80;;;;;;5050455;28;20060;-50
2021/05/28 02:14:28;;;;;;;22.40;9.75;;;8.60;93.80;;;;;;5050345;28;20041;-52
2021/05/28 02:16:54;;;;;;;21.95;9.10;;;8.60;94.00;;;;;;5047642;28;20041;-52
2021/05/28 02:19:21;;;;;;;17.95;9.07;;;8.60;93.90;;;;;;5051027;28;20546;-52
2021/05/28 02:21:48;;;;;;;21.30;9.95;;;8.70;93.90;;;;;;5050864;28;20036;-51
2021/05/28 02:24:15;;;;;;;16.60;9.23;;;8.60;93.90;;;;;;5049975;28;20045;-52
2021/05/28 02:26:45;;;;;;;18.13;9.27;;;8.70;93.80;;;;;;5046744;28;20039;-50
2021/05/28 02:29:12;;;;;;;22.42;9.57;;;8.60;93.90;;;;;;5016880;28;20493;-53
2021/05/28 02:31:38;;;;;;;17.23;8.93;;;8.70;93.90;;;;;;5048691;28;20084;-53
2021/05/28 02:34:04;;;;;;;22.63;8.93;;;8.70;93.90;;;;;;5039793;28;20053;-51
2021/05/28 02:36:31;;;;;;;21.95;9.02;;;8.60;93.90;;;;;;5045230;28;20413;-50
2021/05/28 02:38:57;;;;;;;19.67;9.10;;;8.70;94.00;;;;;;5051093;28;20063;-53
2021/05/28 02:41:23;;;;;;;20.20;7.88;;;8.70;93.90;;;;;;5050482;28;20439;-53
2021/05/28 02:43:50;;;;;;;17.83;8.52;;;8.70;93.90;;;;;;5016873;28;20044;-53
2021/05/28 02:46:16;;;;;;;16.48;8.30;;;8.70;93.60;;;;;;5052730;28;20041;-54
2021/05/28 02:48:43;;;;;;;17.90;8.23;;;8.70;93.60;;;;;;5031641;28;20060;-54
2021/05/28 02:51:09;;;;;;;20.45;8.85;;;8.70;93.70;;;;;;5029695;28;20106;-50
2021/05/28 02:53:35;;;;;;;16.40;8.32;;;8.70;93.70;;;;;;5048383;28;20739;-52
2021/05/28 02:56:06;;;;;;;17.52;8.60;;;8.70;93.70;;;;;;5050098;28;20106;-50
2021/05/28 02:58:33;;;;;;;17.15;8.88;;;8.70;93.70;;;;;;5037350;28;20064;-54
2021/05/28 03:00:59;;;;;;;17.80;8.20;;;8.70;93.70;;;;;;5016097;28;20092;-50
2021/05/28 03:03:24;;;;;;;16.77;8.65;;;8.70;93.80;;;;;;5048888;28;20065;-51
2021/05/28 03:05:51;;;;;;;21.23;8.68;;;8.70;93.80;;;;;;5029409;28;20041;-50
2021/05/28 03:08:18;;;;;;;18.88;8.75;;;8.70;93.80;;;;;;5049333;28;20037;-50
2021/05/28 03:10:44;;;;;;;21.73;8.75;;;8.70;93.80;;;;;;5050846;28;20076;-52
2021/05/28 03:13:11;;;;;;;17.10;8.32;;;8.70;93.80;;;;;;5051042;28;20102;-56
2021/05/28 03:15:37;;;;;;;18.90;8.68;;;8.70;93.80;;;;;;5032895;28;20044;-54
2021/05/28 03:18:03;;;;;;;20.77;8.95;;;8.70;93.90;;;;;;5051295;28;20556;-53
2021/05/28 03:20:35;;;;;;;16.48;8.82;;;8.70;93.70;;;;;;5032389;28;20053;-51
2021/05/28 03:23:06;;;;;;;24.30;9.55;;;8.90;93.70;;;;;;5050983;28;20051;-50
2021/05/28 03:25:33;;;;;;;21.80;9.10;;;8.80;93.50;;;;;;5020800;28;20560;-51
2021/05/28 03:27:59;;;;;;;21.23;9.75;;;8.90;93.70;;;;;;5054397;28;20091;-50
2021/05/28 03:30:25;;;;;;;18.38;10.40;;;8.90;93.30;;;;;;5054426;28;20044;-55
2021/05/28 03:32:51;;;;;;;17.33;10.10;;;8.80;93.50;;;;;;5021133;28;20045;-52
2021/05/28 03:35:17;;;;;;;22.98;10.50;;;8.80;93.80;;;;;;5053911;28;20465;-53
2021/05/28 03:37:43;;;;;;;24.50;10.80;;;8.70;93.70;;;;;;5054583;28;20045;-54
2021/05/28 03:40:11;;;;;;;26.38;11.23;;;8.70;93.90;;;;;;5052807;28;20436;-50
2021/05/28 03:42:37;;;;;;;18.73;10.88;;;8.70;93.80;;;;;;5051201;28;20131;-50
2021/05/28 03:45:05;;;;;;;23.42;10.90;;;8.70;93.90;;;;;;5019670;28;20183;-53
2021/05/28 03:47:32;;;;;;;18.83;10.63;;;8.70;93.90;;;;;;5054473;28;20045;-50
2021/05/28 03:49:58;;;;;;;19.08;10.18;;;8.80;94.10;;;;;;5052903;28;20044;-50
2021/05/28 03:52:24;;;;;;;20.50;10.27;;;8.80;93.70;;;;;;5054437;28;20037;-52
2021/05/28 03:54:50;;;;;;;18.17;10.00;;;8.80;93.60;;;;;;5033778;28;20042;-50
2021/05/28 03:57:21;;;;;;;20.02;9.65;;;8.90;93.90;;;;;;5051210;28;20036;-50
2021/05/28 03:59:46;;;;;;;21.00;9.55;;;8.80;93.70;;;;;;5055079;28;20465;-50
2021/05/28 04:02:12;;;;;;;21.42;9.63;;;8.80;93.80;;;;;;5041972;28;20060;-51
2021/05/28 04:04:38;;;;;;;23.40;9.98;;;8.80;93.90;;;;;;5054164;28;20523;-53
2021/05/28 04:07:05;;;;;;;21.10;9.50;;;8.80;93.90;;;;;;5056488;28;20116;-51
2021/05/28 04:09:31;;;;;;;20.20;10.02;;;8.80;94.00;;;;;;5055397;28;20132;-50
2021/05/28 04:11:57;;;;;;;19.88;9.65;;;8.80;94.10;;;;;;5053649;28;20068;-50
2021/05/28 04:14:24;;;;;;;14.48;8.73;;;8.80;94.10;;;;;;5054072;28;20480;-55
2021/05/28 04:16:50;;;;;;;20.23;9.13;;;8.90;94.20;;;;;;5054236;28;20041;-51
2021/05/28 04:19:15;;;;;;;16.73;8.45;;;8.90;94.20;;;;;;5054312;28;20036;-53
2021/05/28 04:21:41;;;;;;;20.00;8.20;;;8.90;94.10;;;;;;5055206;28;20045;-50
2021/05/28 04:24:07;;;;;;;17.33;8.80;;;8.90;94.10;;;;;;5052817;28;20481;-51
2021/05/28 04:26:33;;;;;;;16.65;8.20;;;8.90;94.10;;;;;;5047242;28;20493;-50
2021/05/28 04:28:59;;;;;;;23.05;8.75;;;8.90;93.90;;;;;;5053516;28;20170;-51
2021/05/28 04:31:25;;;;;;;17.55;8.40;;;8.90;94.00;;;;;;5052088;28;20497;-53
2021/05/28 04:33:50;;;;;;;20.38;9.07;;;8.90;94.00;;;;;;5051159;28;20508;-50
2021/05/28 04:36:16;;;;;;;18.40;8.65;;;8.90;94.00;;;;;;5051791;28;20037;-53
2021/05/28 04:38:42;;;;;;;15.18;7.85;;;8.90;94.10;;;;;;5032601;28;20041;-53
2021/05/28 04:41:08;;;;;;;17.08;7.97;;;9.00;94.00;;;;;;5041934;28;20125;-53
2021/05/28 04:43:34;;;;;;;16.85;7.47;;;9.00;93.90;;;;;;5037140;28;20046;-52
2021/05/28 04:46:00;;;;;;;17.42;7.97;;;9.00;93.80;;;;;;5036899;28;20133;-57
2021/05/28 04:48:25;;;;;;;17.25;8.65;;;9.00;93.80;;;;;;5053439;28;20036;-53
2021/05/28 04:50:51;;;;;;;21.92;9.30;;;9.00;93.90;;;;;;5028318;28;20051;-50
2021/05/28 04:53:17;;;;;;;21.73;8.63;;;9.00;93.80;;;;;;5051979;28;20037;-50
2021/05/28 04:55:43;;;;;;;23.88;8.77;;;9.00;93.80;;;;;;5051851;28;20072;-54
2021/05/28 04:58:10;;;;;;;18.02;8.30;;;9.10;93.90;;;;;;5016774;28;20500;-50
2021/05/28 05:00:35;;;;;;;18.77;8.30;;;9.10;94.00;;;;;;5051396;28;20421;-55
2021/05/28 05:03:03;;;;;;;17.63;8.63;;;9.10;93.60;;;;;;5031467;28;20051;-53
2021/05/28 05:05:29;;;;;;;14.55;8.18;;;9.20;93.30;;;;;;5017571;28;20135;-52
2021/05/28 05:07:56;;;;;;;18.52;7.72;;;9.20;93.10;;;;;;5034765;28;20072;-55
2021/05/28 05:10:22;;;;;;;16.05;7.95;;;9.20;93.00;;;;;;5053001;28;20067;-55
2021/05/28 05:12:48;;;;;;;18.13;7.63;;;9.10;93.30;;;;;;5052646;28;20128;-51
2021/05/28 05:15:14;;;;;;;17.67;7.80;;;9.10;93.50;;;;;;5051968;28;20449;-52
2021/05/28 05:17:40;;;;;;;14.45;7.80;;;9.10;93.50;;;;;;5050975;28;20041;-50
2021/05/28 05:20:07;;;;;;;14.10;7.93;;;9.10;93.60;;;;;;5051886;28;20045;-51
2021/05/28 05:22:33;;;;;;;13.18;7.15;;;9.10;93.60;;;;;;5052287;28;20110;-54
2021/05/28 05:24:59;;;;;;;12.88;7.65;;;9.10;93.50;;;;;;5043411;28;20042;-52
2021/05/28 05:27:24;;;;;;;14.27;7.88;;;9.10;93.50;;;;;;5050896;28;20429;-54
2021/05/28 05:29:50;;;;;;;14.75;7.60;;;9.20;93.80;;;;;;5051426;28;20041;-53
2021/05/28 05:32:16;;;;;;;13.98;6.95;;;9.20;93.50;;;;;;5051387;28;20554;-52
2021/05/28 05:34:42;;;;;;;17.27;7.38;;;9.20;93.40;;;;;;5050968;28;20107;-51
2021/05/28 05:37:07;;;;;;;15.52;7.63;;;9.30;93.30;;;;;;5050817;28;20094;-52
2021/05/28 05:39:34;;;;;;;12.32;7.18;;;9.30;93.20;;;;;;5050328;28;20049;-51
2021/05/28 05:42:01;;;;;;;14.50;7.72;;;9.30;93.20;;;;;;5053157;28;20048;-51
2021/05/28 05:44:27;;;;;;;21.02;7.45;;;9.30;93.30;;;;;;5044420;28;20033;-56
2021/05/28 05:46:52;;;;;;;15.82;8.07;;;9.40;93.30;;;;;;5043621;28;20052;-52
2021/05/28 05:49:18;;;;;;;15.45;7.47;;;9.50;93.30;;;;;;5050129;28;20045;-54
2021/05/28 05:51:44;;;;;;;11.90;6.80;;;9.50;93.20;;;;;;5051639;28;20083;-52
2021/05/28 05:54:10;;;;;;;12.13;7.53;;;9.50;93.20;;;;;;5032338;28;20544;-53
2021/05/28 05:56:36;;;;;;;13.10;7.53;;;9.60;93.20;;;;;;5051162;28;20130;-54
2021/05/28 05:59:03;;;;;;;14.38;7.00;;;9.60;93.10;;;;;;5049887;28;20048;-50
2021/05/28 06:01:29;;;;;;;17.83;7.35;;;9.70;93.30;;;;;;5042122;28;20095;-51
2021/05/28 06:03:55;;;;;;;17.85;8.20;;;9.70;93.10;;;;;;5042616;28;20087;-55
2021/05/28 06:06:20;;;;;;;18.23;8.18;;;9.70;93.10;;;;;;5023947;28;20108;-53
2021/05/28 06:08:46;;;;;;;16.45;7.38;;;9.80;93.10;;;;;;5045526;28;20044;-55
2021/05/28 06:11:12;;;;;;;14.45;7.15;;;9.80;93.20;;;;;;5047015;28;20041;-56
2021/05/28 06:13:37;;;;;;;13.18;7.65;;;9.80;93.10;;;;;;5046486;28;20037;-50
2021/05/28 06:16:03;;;;;;;16.10;7.15;;;9.80;93.00;;;;;;5046392;28;20044;-55
2021/05/28 06:18:30;;;;;;;15.60;7.03;;;9.90;93.00;;;;;;5027583;28;20045;-57
2021/05/28 06:20:58;;;;;;;16.63;7.85;;;9.90;92.80;;;;;;5029072;28;20047;-56
2021/05/28 06:23:24;;;;;;;13.70;7.57;;;10.00;93.00;;;;;;5048582;28;20065;-55
2021/05/28 06:25:50;;;;;;;17.73;7.75;;;10.00;93.00;;;;;;5014553;28;20064;-56
2021/05/28 06:28:16;;;;;;;18.20;8.35;;;10.10;92.90;;;;;;5032986;28;20114;-56
2021/05/28 06:30:42;;;;;;;13.48;7.47;;;10.10;92.90;;;;;;5031125;28;20049;-54
2021/05/28 06:33:09;;;;;;;13.48;7.60;;;10.10;92.90;;;;;;5045373;28;20033;-56
2021/05/28 06:35:37;;;;;;;21.70;8.60;;;10.20;92.90;;;;;;5049737;28;20416;-56
2021/05/28 06:38:03;;;;;;;18.02;8.05;;;10.20;92.90;;;;;;5048723;28;20044;-53
2021/05/28 06:40:29;;;;;;;13.15;7.65;;;10.20;92.80;;;;;;5049553;28;20140;-52
2021/05/28 06:42:55;;;;;;;14.45;7.38;;;10.20;92.70;;;;;;5049102;28;20104;-57
2021/05/28 06:45:22;;;;;;;14.57;7.93;;;10.30;92.70;;;;;;5032003;28;20056;-53
2021/05/28 06:47:48;;;;;;;18.75;7.60;;;10.40;92.60;;;;;;5047986;28;20417;-55
2021/05/28 06:50:16;;;;;;;15.80;7.10;;;10.60;92.60;;;;;;5048556;28;20416;-57
2021/05/28 06:52:42;;;;;;;16.65;6.90;;;10.60;92.40;;;;;;5049424;28;20089;-54
2021/05/28 06:55:09;;;;;;;13.00;6.82;;;10.60;92.10;;;;;;5050032;28;20097;-54
2021/05/28 06:57:35;;;;;;;15.90;7.75;;;10.60;92.10;;;;;;5032713;28;20045;-56
2021/05/28 07:00:04;;;;;;;12.70;7.18;;;10.60;92.20;;;;;;5053686;28;20084;-55
2021/05/28 07:02:31;;;;;;;13.35;7.43;;;10.60;92.00;;;;;;5018402;28;20396;-52
2021/05/28 07:04:56;;;;;;;12.20;6.07;;;10.80;92.00;;;;;;5052854;28;20073;-53
2021/05/28 07:07:22;;;;;;;11.45;6.18;;;11.00;91.80;;;;;;5054211;28;20511;-57
2021/05/28 07:09:49;;;;;;;11.15;6.60;;;11.10;91.20;;;;;;5053795;28;20037;-58
2021/05/28 07:12:14;;;;;;;13.10;6.10;;;11.40;91.10;;;;;;5053876;28;20075;-57
2021/05/28 07:14:40;;;;;;;11.20;6.45;;;11.60;90.60;;;;;;5053556;28;20077;-57
2021/05/28 07:17:06;;;;;;;14.77;6.13;;;11.90;90.40;;;;;;5053862;28;20040;-56
2021/05/28 07:19:32;;;;;;;12.68;6.60;;;12.10;90.30;;;;;;5054030;28;20048;-57
2021/05/28 07:21:58;;;;;;;13.25;7.20;;;12.30;90.20;;;;;;5036748;28;20512;-58
2021/05/28 07:24:24;;;;;;;16.05;7.20;;;12.50;89.50;;;;;;5034624;28;20069;-58
2021/05/28 07:26:50;;;;;;;13.77;6.88;;;12.60;89.50;;;;;;5039677;28;20437;-55
2021/05/28 07:29:15;;;;;;;14.55;6.07;;;12.60;88.90;;;;;;5044461;28;20041;-57
2021/05/28 07:31:41;;;;;;;15.15;6.38;;;12.50;87.60;;;;;;5054001;28;20534;-57
2021/05/28 07:34:07;;;;;;;10.30;5.80;;;12.40;87.40;;;;;;5052966;28;20451;-58
2021/05/28 07:36:33;;;;;;;15.52;5.75;;;12.40;88.10;;;;;;5053457;28;20488;-57
2021/05/28 07:38:58;;;;;;;11.23;5.75;;;12.50;88.60;;;;;;5053527;28;20090;-57
2021/05/28 07:41:24;;;;;;;12.02;5.93;;;12.50;88.10;;;;;;5051905;28;20052;-56
2021/05/28 07:43:50;;;;;;;15.52;6.75;;;12.60;87.40;;;;;;5053143;28;20113;-58
2021/05/28 07:46:16;;;;;;;9.82;5.85;;;12.70;87.30;;;;;;5053391;28;20041;-57
2021/05/28 07:48:42;;;;;;;13.15;5.47;;;12.90;88.30;;;;;;5032214;28;20042;-58
2021/05/28 07:51:08;;;;;;;10.45;5.13;;;13.00;87.10;;;;;;5051516;28;20032;-58
2021/05/28 07:53:33;;;;;;;13.95;5.10;;;13.10;86.10;;;;;;5052803;28;20045;-56
2021/05/28 07:56:04;;;;;;;13.98;5.95;;;13.20;85.00;;;;;;5051104;28;20156;-57
2021/05/28 07:58:30;;;;;;;15.18;6.45;;;13.40;85.90;;;;;;5042281;28;20432;-57
2021/05/28 08:00:57;;;;;;;12.15;5.75;;;13.50;85.70;;;;;;5053150;28;20057;-57
2021/05/28 08:03:22;;;;;;;15.80;6.13;;;13.50;84.70;;;;;;5052820;28;20041;-56
2021/05/28 08:05:50;;;;;;;10.82;6.03;;;13.70;84.40;;;;;;5042384;28;20048;-56
2021/05/28 08:08:19;;;;;;;12.98;5.95;;;13.70;84.40;;;;;;5052191;28;20164;-56
2021/05/28 08:10:46;;;;;;;14.68;5.50;;;13.80;85.20;;;;;;5033797;28;20056;-57
2021/05/28 08:13:12;;;;;;;13.75;5.85;;;14.00;84.60;;;;;;5052284;28;20033;-57
2021/05/28 08:15:38;;;;;;;9.43;5.30;;;14.00;84.30;;;;;;5043865;28;20053;-59
2021/05/28 08:18:04;;;;;;;9.63;4.30;;;14.10;84.30;;;;;;5044415;28;20485;-57
2021/05/28 08:20:31;;;;;;;7.82;3.70;;;14.30;84.10;;;;;;5053029;28;20041;-56
2021/05/28 08:22:58;;;;;;;7.50;4.03;;;14.30;81.50;;;;;;5044435;28;20484;-56
2021/05/28 08:25:28;;;;;;;9.02;3.70;;;14.30;80.60;;;;;;5038662;28;20512;-57
2021/05/28 08:27:54;;;;;;;8.23;3.70;;;14.20;80.30;;;;;;5046153;28;20452;-56
2021/05/28 08:30:21;;;;;;;8.75;3.65;;;14.30;79.40;;;;;;5034010;28;20045;-57
2021/05/28 08:32:48;;;;;;;9.20;4.82;;;14.30;79.40;;;;;;5048030;28;20040;-57
2021/05/28 08:35:15;;;;;;;8.05;4.00;;;14.30;79.10;;;;;;5053275;28;20044;-57
2021/05/28 08:37:41;;;;;;;8.73;3.90;;;14.40;79.10;;;;;;5034728;28;20061;-57
2021/05/28 08:40:09;;;;;;;6.82;3.53;;;14.40;76.60;;;;;;5053116;28;20045;-57
2021/05/28 08:42:35;;;;;;;8.30;4.15;;;14.50;75.70;;;;;;5033713;28;20117;-57
2021/05/28 08:45:01;;;;;;;9.88;4.07;;;14.50;76.60;;;;;;5032069;28;20094;-58
2021/05/28 08:47:27;;;;;;;9.23;3.70;;;14.60;78.70;;;;;;5050569;28;20485;-57
2021/05/28 08:49:55;;;;;;;8.23;4.07;;;14.60;78.10;;;;;;5032815;28;20537;-57
2021/05/28 08:52:21;;;;;;;6.43;3.30;;;14.70;76.60;;;;;;5051057;28;20048;-57
2021/05/28 08:54:49;;;;;;;7.60;3.80;;;14.60;76.70;;;;;;5031674;28;20033;-56
2021/05/28 08:57:18;;;;;;;9.27;3.60;;;14.60;75.80;;;;;;5051709;28;20033;-57
2021/05/28 08:59:45;;;;;;;6.78;3.70;;;14.70;72.40;;;;;;5050046;28;20040;-58
2021/05/28 09:02:32;;;;;;;8.20;3.47;;;14.70;74.70;;;;;;5050262;28;20060;-58
2021/05/28 09:05:23;;;;;;;9.13;3.67;;;14.90;76.00;;;;;;5031645;28;20171;-57
2021/05/28 09:08:00;;;;;;;7.85;4.07;;;15.10;75.60;;;;;;5046555;28;20029;-58
2021/05/28 09:10:39;;;;;;;9.43;5.68;;;15.20;75.20;;;;;;5040562;28;20079;-57
2021/05/28 09:13:14;;;;;;;16.75;12.65;;;15.30;75.70;;;;;;5045383;28;20056;-57
2021/05/28 09:15:44;;;;;;;10.25;4.65;;;15.30;75.30;;;;;;5051619;28;20361;-57
2021/05/28 09:18:10;;;;;;;7.15;3.95;;;15.40;74.90;;;;;;5046090;28;20525;-56
2021/05/28 09:20:37;;;;;;;7.45;3.85;;;15.50;75.30;;;;;;5046442;28;20538;-57
2021/05/28 09:23:16;;;;;;;5.70;3.30;;;15.50;74.90;;;;;;5031230;28;20036;-58
2021/05/28 09:26:02;;;;;;;8.70;3.20;;;15.60;74.00;;;;;;5049307;28;20124;-58
2021/05/28 09:28:34;;;;;;;10.07;3.72;;;15.60;70.90;;;;;;5049128;28;20840;-57
2021/05/28 09:31:07;;;;;;;8.63;3.47;;;15.50;72.80;;;;;;5050921;28;20029;-58
2021/05/28 09:33:38;;;;;;;7.97;3.40;;;15.40;72.30;;;;;;5050885;28;20057;-58
2021/05/28 09:36:17;;;;;;;6.50;4.10;;;15.50;73.70;;;;;;5018131;28;20044;-58
2021/05/28 09:39:09;;;;;;;7.97;4.93;;;15.70;74.20;;;;;;5046071;28;20049;-58
2021/05/28 09:41:40;;;;;;;7.78;4.10;;;15.80;73.10;;;;;;5049949;28;20493;-59
2021/05/28 09:44:28;;;;;;;10.70;4.05;;;15.80;74.20;;;;;;5044297;28;20037;-58
2021/05/28 09:47:06;;;;;;;7.75;3.88;;;15.90;71.60;;;;;;5046079;28;20101;-58
2021/05/28 09:49:35;;;;;;;8.88;4.20;;;15.90;71.80;;;;;;5050469;28;20037;-58
2021/05/28 09:52:05;;;;;;;9.57;3.80;;;15.90;73.50;;;;;;5067446;22;20045;-53
2021/05/28 09:54:31;;;;;;;6.88;3.75;;;16.00;74.70;;;;;;5049080;28;20045;-54
2021/05/28 09:56:57;;;;;;;6.50;3.80;;;16.20;74.50;;;;;;5052215;28;20503;-52
2021/05/28 09:59:22;;;;;;;9.45;3.90;;;16.30;70.50;;;;;;5052810;28;20049;-53
2021/05/28 10:02:02;;;;;;;8.40;3.78;;;16.30;69.10;;;;;;5052010;28;20045;-51
2021/05/28 10:04:32;;;;;;;7.10;3.25;;;16.30;71.90;;;;;;5051078;28;20056;-54
2021/05/28 10:06:58;;;;;;;7.35;3.13;;;16.30;70.60;;;;;;5051150;28;20045;-54
2021/05/28 10:09:24;;;;;;;6.35;3.10;;;16.40;70.00;;;;;;5052248;28;20053;-55
2021/05/28 10:11:52;;;;;;;5.72;3.13;;;16.50;65.90;;;;;;5037228;28;20055;-56
2021/05/28 10:14:17;;;;;;;8.85;3.08;;;16.50;67.00;;;;;;5050240;28;20080;-55
2021/05/28 10:16:43;;;;;;;5.88;3.20;;;16.60;67.00;;;;;;5049946;28;20044;-57
2021/05/28 10:19:09;;;;;;;5.47;3.08;;;16.70;68.60;;;;;;5051499;28;20041;-58
2021/05/28 10:21:35;;;;;;;5.82;3.55;;;16.80;69.90;;;;;;5050120;28;20132;-57
2021/05/28 10:24:01;;;;;;;8.23;3.38;;;17.00;70.50;;;;;;5066145;28;20040;-56
2021/05/28 10:26:32;;;;;;;7.38;3.50;;;17.10;71.20;;;;;;5050741;28;20086;-57
2021/05/28 10:28:58;;;;;;;5.60;3.35;;;17.10;71.20;;;;;;5055873;28;20045;-56
2021/05/28 10:31:52;;;;;;;7.18;3.70;;;17.30;70.90;;;;;;5048577;28;20512;-58
2021/05/28 10:34:19;;;;;;;10.00;3.28;;;17.30;68.20;;;;;;5043323;28;20041;-57
2021/05/28 10:36:46;;;;;;;5.95;2.72;;;17.30;66.60;;;;;;5032520;28;20489;-59
2021/05/28 10:39:14;;;;;;;7.68;2.85;;;17.30;68.50;;;;;;5048341;28;20529;-57
2021/05/28 10:41:48;;;;;;;7.47;2.88;;;17.40;67.90;;;;;;5051195;28;20040;-57
2021/05/28 10:44:22;;;;;;;5.80;2.72;;;17.50;66.60;;;;;;5051258;28;20082;-58
2021/05/28 10:46:52;;;;;;;4.95;2.58;;;17.70;66.80;;;;;;5043354;28;20041;-58
2021/05/28 10:49:18;;;;;;;5.70;2.97;;;17.90;64.10;;;;;;5042874;28;20048;-57
2021/05/28 10:51:46;;;;;;;3.88;2.78;;;18.00;65.80;;;;;;5052372;28;20067;-58
2021/05/28 10:54:18;;;;;;;5.38;2.60;;;18.10;65.30;;;;;;5053302;28;20045;-54
2021/05/28 10:56:44;;;;;;;6.90;2.60;;;17.90;62.50;;;;;;5051430;28;20115;-59
2021/05/28 10:59:12;;;;;;;5.90;2.58;;;17.60;64.70;;;;;;5054880;28;20095;-57
2021/05/28 11:01:56;;;;;;;5.03;2.33;;;17.40;63.50;;;;;;5053237;28;20401;-58
2021/05/28 11:04:31;;;;;;;6.00;2.67;;;17.30;64.20;;;;;;5049444;28;20043;-59
2021/05/28 11:07:00;;;;;;;5.65;2.53;;;17.20;65.30;;;;;;5051429;28;20033;-58
2021/05/28 11:09:47;;;;;;;5.68;2.50;;;17.10;66.30;;;;;;5063708;28;20488;-58
2021/05/28 11:12:34;;;;;;;5.05;2.55;;;17.00;66.00;;;;;;5052081;28;20043;-59
2021/05/28 11:15:13;;;;;;;5.80;2.63;;;17.00;65.50;;;;;;5044379;28;20053;-58
2021/05/28 11:17:52;;;;;;;4.57;2.63;;;17.00;66.70;;;;;;5056926;28;20444;-59
2021/05/28 11:20:31;;;;;;;5.85;2.80;;;17.00;67.40;;;;;;5051975;28;20534;-59
2021/05/28 11:22:59;;;;;;;7.38;2.60;;;17.10;68.40;;;;;;5034117;28;20097;-59
2021/05/28 11:25:29;;;;;;;6.38;3.10;;;17.20;67.70;;;;;;5051619;28;20068;-59
2021/05/28 11:28:09;;;;;;;6.55;2.70;;;17.20;67.80;;;;;;5052621;28;20183;-57
2021/05/28 11:30:40;;;;;;;3.67;2.03;;;17.20;65.60;;;;;;5051350;28;20834;-57
2021/05/28 11:33:07;;;;;;;4.60;2.47;;;17.10;63.70;;;;;;5034583;28;20044;-58
2021/05/28 11:35:39;;;;;;;6.13;3.00;;;17.00;65.70;;;;;;5050963;28;20099;-57
2021/05/28 11:38:10;;;;;;;4.53;2.95;;;17.00;66.70;;;;;;5046959;28;20045;-57
2021/05/28 11:40:36;;;;;;;4.70;3.08;;;16.90;67.00;;;;;;5065597;28;20047;-58
2021/05/28 11:43:18;;;;;;;5.85;2.67;;;16.80;67.50;;;;;;5065192;28;20049;-57
2021/05/28 11:45:54;;;;;;;4.38;2.50;;;16.80;66.30;;;;;;5029590;28;20049;-57
2021/05/28 11:48:25;;;;;;;4.05;2.58;;;16.90;64.10;;;;;;5048055;28;20175;-58
2021/05/28 11:50:55;;;;;;;5.30;2.58;;;16.80;65.20;;;;;;5051655;28;20476;-57
2021/05/28 11:53:21;;;;;;;7.05;2.70;;;16.80;65.70;;;;;;5032018;28;20055;-59
2021/05/28 11:55:55;;;;;;;4.05;2.60;;;16.90;66.60;;;;;;5050493;28;20118;-59
2021/05/28 11:58:23;;;;;;;5.50;2.45;;;16.90;66.90;;;;;;5042664;28;20132;-59
2021/05/28 12:00:51;;;;;;;5.53;2.85;;;16.70;66.60;;;;;;5065241;28;20499;-59
2021/05/28 12:03:17;;;;;;;8.10;2.67;;;16.70;66.00;;;;;;5064186;28;20041;-59
2021/05/28 12:05:45;;;;;;;5.55;2.88;;;16.70;65.70;;;;;;5044506;28;20144;-58
2021/05/28 12:08:16;;;;;;;4.90;2.85;;;17.00;60.30;;;;;;5049792;28;20103;-56
2021/05/28 12:11:03;;;;;;;4.32;2.30;;;16.90;62.30;;;;;;5052765;28;20043;-57
2021/05/28 12:13:37;;;;;;;3.83;2.25;;;16.80;62.90;;;;;;5034297;28;20053;-57
2021/05/28 12:16:08;;;;;;;5.15;2.17;;;16.80;61.10;;;;;;5052984;28;20558;-57
2021/05/28 12:18:38;;;;;;;4.20;2.35;;;16.60;62.00;;;;;;5027445;28;20542;-55
2021/05/28 12:21:09;;;;;;;3.70;1.90;;;16.60;61.30;;;;;;5040812;28;20063;-55
2021/05/28 12:23:37;;;;;;;3.53;2.40;;;16.80;61.40;;;;;;5051912;28;20048;-57
2021/05/28 12:26:04;;;;;;;4.63;2.70;;;17.10;62.60;;;;;;5051928;28;20041;-54
2021/05/28 12:28:35;;;;;;;6.55;3.83;;;17.40;63.60;;;;;;5039351;28;20378;-57
2021/05/28 12:31:11;;;;;;;3.97;2.28;;;17.70;60.10;;;;;;5052821;28;20064;-56
2021/05/28 12:33:46;;;;;;;5.55;2.40;;;17.90;60.30;;;;;;5030370;28;20049;-57
2021/05/28 12:36:14;;;;;;;6.47;2.22;;;18.20;60.00;;;;;;5034891;28;20076;-57
2021/05/28 12:38:45;;;;;;;7.50;2.33;;;18.30;59.60;;;;;;5051026;28;20144;-58
2021/05/28 12:41:13;;;;;;;3.40;2.30;;;18.20;60.30;;;;;;5052438;28;20045;-57
2021/05/28 12:43:44;;;;;;;4.63;2.35;;;18.10;61.50;;;;;;5034182;28;20056;-56
2021/05/28 12:46:15;;;;;;;4.57;2.10;;;17.90;62.30;;;;;;5052453;28;20041;-57